sensor_id;sensor_type;location;lat;lon;timestamp;temperature;humidity
26342;DHT22;14054;50.108;8.640;2022-09-30T00:01:34;8.90;99.90
26342;DHT22;14054;50.108;8.640;2022-09-30T00:04:00;8.80;99.90
26342;DHT22;14054;50.108;8.640;2022-09-30T00:06:26;8.90;99.90
26342;DHT22;14054;50.108;8.640;2022-09-30T00:08:52;8.90;99.90
26342;DHT22;14054;50.108;8.640;2022-09-30T00:11:19;8.80;99.90
26342;DHT22;14054;50.108;8.640;2022-09-30T00:13:46;8.80;99.90
26342;DHT22;14054;50.108;8.640;2022-09-30T00:16:12;8.80;99.90
26342;DHT22;14054;50.108;8.640;2022-09-30T00:18:38;8.70;99.90
26342;DHT22;14054;50.108;8.640;2022-09-30T00:21:04;8.70;99.90
26342;DHT22;14054;50.108;8.640;2022-09-30T00:23:30;8.70;99.90
26342;DHT22;14054;50.108;8.640;2022-09-30T00:25:59;8.60;99.90
26342;DHT22;14054;50.108;8.640;2022-09-30T00:28:24;8.60;99.90
26342;DHT22;14054;50.108;8.640;2022-09-30T00:30:50;8.70;99.90
26342;DHT22;14054;50.108;8.640;2022-09-30T00:33:16;8.70;99.90
26342;DHT22;14054;50.108;8.640;2022-09-30T00:35:41;8.50;99.90
26342;DHT22;14054;50.108;8.640;2022-09-30T00:38:06;8.40;99.90
26342;DHT22;14054;50.108;8.640;2022-09-30T00:40:32;8.40;99.90
26342;DHT22;14054;50.108;8.640;2022-09-30T00:42:57;8.30;99.90
26342;DHT22;14054;50.108;8.640;2022-09-30T00:45:25;8.30;99.90
26342;DHT22;14054;50.108;8.640;2022-09-30T00:50:24;8.30;99.90
26342;DHT22;14054;50.108;8.640;2022-09-30T00:52:59;8.20;99.90
26342;DHT22;14054;50.108;8.640;2022-09-30T00:55:32;8.30;99.90
26342;DHT22;14054;50.108;8.640;2022-09-30T00:57:59;8.20;99.90
26342;DHT22;14054;50.108;8.640;2022-09-30T01:00:25;8.20;99.90
26342;DHT22;14054;50.108;8.640;2022-09-30T01:02:51;8.10;99.90
26342;DHT22;14054;50.108;8.640;2022-09-30T01:05:16;8.10;99.90
26342;DHT22;14054;50.108;8.640;2022-09-30T01:07:42;8.10;99.90
26342;DHT22;14054;50.108;8.640;2022-09-30T01:10:07;8.20;99.90
26342;DHT22;14054;50.108;8.640;2022-09-30T01:12:33;8.20;99.90
26342;DHT22;14054;50.108;8.640;2022-09-30T01:14:58;8.10;99.90
26342;DHT22;14054;50.108;8.640;2022-09-30T01:22:43;8.00;99.90
26342;DHT22;14054;50.108;8.640;2022-09-30T01:30:18;8.00;99.90
26342;DHT22;14054;50.108;8.640;2022-09-30T01:35:33;8.00;99.90
26342;DHT22;14054;50.108;8.640;2022-09-30T01:38:05;8.20;99.90
26342;DHT22;14054;50.108;8.640;2022-09-30T01:43:14;8.10;99.90
26342;DHT22;14054;50.108;8.640;2022-09-30T01:45:47;8.10;99.90
26342;DHT22;14054;50.108;8.640;2022-09-30T01:48:17;8.00;99.90
26342;DHT22;14054;50.108;8.640;2022-09-30T01:53:14;7.90;99.90
26342;DHT22;14054;50.108;8.640;2022-09-30T01:55:47;7.80;99.90
26342;DHT22;14054;50.108;8.640;2022-09-30T02:00:39;7.70;99.90
26342;DHT22;14054;50.108;8.640;2022-09-30T02:03:08;7.60;99.90
26342;DHT22;14054;50.108;8.640;2022-09-30T02:05:36;7.60;99.90
26342;DHT22;14054;50.108;8.640;2022-09-30T02:08:04;7.50;99.90
26342;DHT22;14054;50.108;8.640;2022-09-30T02:10:33;7.50;99.90
26342;DHT22;14054;50.108;8.640;2022-09-30T02:13:02;7.50;99.90
26342;DHT22;14054;50.108;8.640;2022-09-30T02:15:37;7.50;99.90
26342;DHT22;14054;50.108;8.640;2022-09-30T02:18:07;7.40;99.90
26342;DHT22;14054;50.108;8.640;2022-09-30T02:20:36;7.40;99.90
26342;DHT22;14054;50.108;8.640;2022-09-30T02:25:29;7.30;99.90
26342;DHT22;14054;50.108;8.640;2022-09-30T02:27:58;7.30;99.90
26342;DHT22;14054;50.108;8.640;2022-09-30T02:30:24;7.30;99.90
26342;DHT22;14054;50.108;8.640;2022-09-30T02:32:59;7.40;99.90
26342;DHT22;14054;50.108;8.640;2022-09-30T02:35:38;7.30;99.90
26342;DHT22;14054;50.108;8.640;2022-09-30T02:38:14;7.30;99.90
26342;DHT22;14054;50.108;8.640;2022-09-30T02:40:42;7.50;99.90
26342;DHT22;14054;50.108;8.640;2022-09-30T02:43:12;7.50;99.90
26342;DHT22;14054;50.108;8.640;2022-09-30T02:45:42;7.50;99.90
26342;DHT22;14054;50.108;8.640;2022-09-30T02:48:25;7.50;99.90
26342;DHT22;14054;50.108;8.640;2022-09-30T02:53:53;7.50;99.90
26342;DHT22;14054;50.108;8.640;2022-09-30T02:56:30;7.50;99.90
26342;DHT22;14054;50.108;8.640;2022-09-30T02:59:02;7.40;99.90
26342;DHT22;14054;50.108;8.640;2022-09-30T03:01:28;7.30;99.90
26342;DHT22;14054;50.108;8.640;2022-09-30T03:03:56;7.30;99.90
26342;DHT22;14054;50.108;8.640;2022-09-30T03:06:22;7.40;99.90
26342;DHT22;14054;50.108;8.640;2022-09-30T03:08:48;7.40;99.90
26342;DHT22;14054;50.108;8.640;2022-09-30T03:11:18;7.20;99.90
26342;DHT22;14054;50.108;8.640;2022-09-30T03:16:27;7.20;99.90
26342;DHT22;14054;50.108;8.640;2022-09-30T03:21:28;7.10;99.90
26342;DHT22;14054;50.108;8.640;2022-09-30T03:29:42;7.30;99.90
26342;DHT22;14054;50.108;8.640;2022-09-30T03:32:21;7.20;99.90
26342;DHT22;14054;50.108;8.640;2022-09-30T03:37:30;7.20;99.90
26342;DHT22;14054;50.108;8.640;2022-09-30T03:42:27;7.20;99.90
26342;DHT22;14054;50.108;8.640;2022-09-30T03:44:59;7.20;99.90
26342;DHT22;14054;50.108;8.640;2022-09-30T03:47:26;7.10;99.90
26342;DHT22;14054;50.108;8.640;2022-09-30T03:49:56;7.10;99.90
26342;DHT22;14054;50.108;8.640;2022-09-30T03:52:24;7.20;99.90
26342;DHT22;14054;50.108;8.640;2022-09-30T03:54:51;7.10;99.90
26342;DHT22;14054;50.108;8.640;2022-09-30T03:57:17;7.00;99.90
26342;DHT22;14054;50.108;8.640;2022-09-30T03:59:43;6.90;99.90
26342;DHT22;14054;50.108;8.640;2022-09-30T04:02:08;6.90;99.90
26342;DHT22;14054;50.108;8.640;2022-09-30T04:04:40;7.00;99.90
26342;DHT22;14054;50.108;8.640;2022-09-30T04:07:06;7.00;99.90
26342;DHT22;14054;50.108;8.640;2022-09-30T04:09:32;7.00;99.90
26342;DHT22;14054;50.108;8.640;2022-09-30T04:11:57;7.00;99.90
26342;DHT22;14054;50.108;8.640;2022-09-30T04:14:23;7.00;99.90
26342;DHT22;14054;50.108;8.640;2022-09-30T04:16:48;7.00;99.90
26342;DHT22;14054;50.108;8.640;2022-09-30T04:19:14;7.10;99.90
26342;DHT22;14054;50.108;8.640;2022-09-30T04:21:39;7.10;99.90
26342;DHT22;14054;50.108;8.640;2022-09-30T04:24:04;6.90;99.90
26342;DHT22;14054;50.108;8.640;2022-09-30T04:26:30;6.90;99.90
26342;DHT22;14054;50.108;8.640;2022-09-30T04:28:55;6.90;99.90
26342;DHT22;14054;50.108;8.640;2022-09-30T04:31:23;6.90;99.90
26342;DHT22;14054;50.108;8.640;2022-09-30T04:33:48;6.80;99.90
26342;DHT22;14054;50.108;8.640;2022-09-30T04:36:15;6.80;99.90
26342;DHT22;14054;50.108;8.640;2022-09-30T04:38:40;6.80;99.90
26342;DHT22;14054;50.108;8.640;2022-09-30T04:41:06;6.70;99.90
26342;DHT22;14054;50.108;8.640;2022-09-30T04:43:31;6.70;99.90
26342;DHT22;14054;50.108;8.640;2022-09-30T04:45:58;6.70;99.90
26342;DHT22;14054;50.108;8.640;2022-09-30T04:48:24;6.70;99.90
26342;DHT22;14054;50.108;8.640;2022-09-30T04:50:50;6.60;99.90
26342;DHT22;14054;50.108;8.640;2022-09-30T04:53:16;6.70;99.90
26342;DHT22;14054;50.108;8.640;2022-09-30T04:55:42;6.60;99.90
26342;DHT22;14054;50.108;8.640;2022-09-30T04:58:08;6.50;99.90
26342;DHT22;14054;50.108;8.640;2022-09-30T05:00:33;6.40;99.90
26342;DHT22;14054;50.108;8.640;2022-09-30T05:02:59;6.40;99.90
26342;DHT22;14054;50.108;8.640;2022-09-30T05:05:24;6.40;99.90
26342;DHT22;14054;50.108;8.640;2022-09-30T05:07:50;6.30;99.90
26342;DHT22;14054;50.108;8.640;2022-09-30T05:10:15;6.30;99.90
26342;DHT22;14054;50.108;8.640;2022-09-30T05:12:41;6.30;99.90
26342;DHT22;14054;50.108;8.640;2022-09-30T05:15:06;6.30;99.90
26342;DHT22;14054;50.108;8.640;2022-09-30T05:17:32;6.30;99.90
26342;DHT22;14054;50.108;8.640;2022-09-30T05:19:57;6.30;99.90
26342;DHT22;14054;50.108;8.640;2022-09-30T05:22:23;6.30;99.90
26342;DHT22;14054;50.108;8.640;2022-09-30T05:24:52;6.40;99.90
26342;DHT22;14054;50.108;8.640;2022-09-30T05:27:18;6.50;99.90
26342;DHT22;14054;50.108;8.640;2022-09-30T05:29:43;6.50;99.90
26342;DHT22;14054;50.108;8.640;2022-09-30T05:32:09;6.60;99.90
26342;DHT22;14054;50.108;8.640;2022-09-30T05:34:34;6.60;99.90
26342;DHT22;14054;50.108;8.640;2022-09-30T05:37:01;6.60;99.90
26342;DHT22;14054;50.108;8.640;2022-09-30T05:39:26;6.60;99.90
26342;DHT22;14054;50.108;8.640;2022-09-30T05:41:52;6.60;99.90
26342;DHT22;14054;50.108;8.640;2022-09-30T05:44:19;6.60;99.90
26342;DHT22;14054;50.108;8.640;2022-09-30T05:46:45;6.50;99.90
26342;DHT22;14054;50.108;8.640;2022-09-30T05:49:11;6.60;99.90
26342;DHT22;14054;50.108;8.640;2022-09-30T05:51:36;6.60;99.90
26342;DHT22;14054;50.108;8.640;2022-09-30T05:54:02;6.60;99.90
26342;DHT22;14054;50.108;8.640;2022-09-30T05:56:27;6.70;99.90
26342;DHT22;14054;50.108;8.640;2022-09-30T05:58:53;6.70;99.90
26342;DHT22;14054;50.108;8.640;2022-09-30T06:01:18;6.80;99.90
26342;DHT22;14054;50.108;8.640;2022-09-30T06:03:44;6.80;99.90
26342;DHT22;14054;50.108;8.640;2022-09-30T06:06:11;6.70;99.90
26342;DHT22;14054;50.108;8.640;2022-09-30T06:08:37;6.70;99.90
26342;DHT22;14054;50.108;8.640;2022-09-30T06:11:06;6.70;99.90
26342;DHT22;14054;50.108;8.640;2022-09-30T06:13:34;6.70;99.90
26342;DHT22;14054;50.108;8.640;2022-09-30T06:16:00;6.80;99.90
26342;DHT22;14054;50.108;8.640;2022-09-30T06:18:26;6.90;99.90
26342;DHT22;14054;50.108;8.640;2022-09-30T06:20:55;7.00;99.90
26342;DHT22;14054;50.108;8.640;2022-09-30T06:23:21;7.10;99.90
26342;DHT22;14054;50.108;8.640;2022-09-30T06:25:50;7.10;99.90
26342;DHT22;14054;50.108;8.640;2022-09-30T06:28:15;7.20;99.90
26342;DHT22;14054;50.108;8.640;2022-09-30T06:30:42;7.30;99.90
26342;DHT22;14054;50.108;8.640;2022-09-30T06:33:07;7.30;99.90
26342;DHT22;14054;50.108;8.640;2022-09-30T06:35:33;7.40;99.90
26342;DHT22;14054;50.108;8.640;2022-09-30T06:37:58;7.50;99.90
26342;DHT22;14054;50.108;8.640;2022-09-30T06:40:24;7.50;99.90
26342;DHT22;14054;50.108;8.640;2022-09-30T06:42:50;7.70;99.90
26342;DHT22;14054;50.108;8.640;2022-09-30T06:45:16;7.80;99.90
26342;DHT22;14054;50.108;8.640;2022-09-30T06:47:43;7.90;99.90
26342;DHT22;14054;50.108;8.640;2022-09-30T06:50:09;8.00;99.90
26342;DHT22;14054;50.108;8.640;2022-09-30T06:52:34;8.00;99.90
26342;DHT22;14054;50.108;8.640;2022-09-30T06:55:00;8.10;99.90
26342;DHT22;14054;50.108;8.640;2022-09-30T06:57:25;8.30;99.90
26342;DHT22;14054;50.108;8.640;2022-09-30T06:59:52;8.50;99.90
26342;DHT22;14054;50.108;8.640;2022-09-30T07:02:18;8.70;99.90
26342;DHT22;14054;50.108;8.640;2022-09-30T07:04:44;8.90;99.90
26342;DHT22;14054;50.108;8.640;2022-09-30T07:07:10;9.00;99.90
26342;DHT22;14054;50.108;8.640;2022-09-30T07:09:36;9.10;99.90
26342;DHT22;14054;50.108;8.640;2022-09-30T07:12:02;9.40;99.90
26342;DHT22;14054;50.108;8.640;2022-09-30T07:14:27;9.60;99.90
26342;DHT22;14054;50.108;8.640;2022-09-30T07:16:52;9.90;99.90
26342;DHT22;14054;50.108;8.640;2022-09-30T07:19:18;10.70;99.90
26342;DHT22;14054;50.108;8.640;2022-09-30T07:21:49;10.90;99.90
26342;DHT22;14054;50.108;8.640;2022-09-30T07:24:15;11.00;99.90
26342;DHT22;14054;50.108;8.640;2022-09-30T07:26:41;10.70;99.90
26342;DHT22;14054;50.108;8.640;2022-09-30T07:29:09;10.60;99.90
26342;DHT22;14054;50.108;8.640;2022-09-30T07:31:35;10.70;99.90
26342;DHT22;14054;50.108;8.640;2022-09-30T07:34:01;10.50;99.90
26342;DHT22;14054;50.108;8.640;2022-09-30T07:36:27;10.60;99.90
26342;DHT22;14054;50.108;8.640;2022-09-30T07:38:54;10.60;99.90
26342;DHT22;14054;50.108;8.640;2022-09-30T07:41:22;10.80;99.90
26342;DHT22;14054;50.108;8.640;2022-09-30T07:43:51;10.90;99.90
26342;DHT22;14054;50.108;8.640;2022-09-30T07:46:18;11.10;99.90
26342;DHT22;14054;50.108;8.640;2022-09-30T07:48:45;11.10;99.90
26342;DHT22;14054;50.108;8.640;2022-09-30T07:51:13;11.10;99.90
26342;DHT22;14054;50.108;8.640;2022-09-30T07:53:40;11.10;99.90
26342;DHT22;14054;50.108;8.640;2022-09-30T07:56:05;11.10;99.90
26342;DHT22;14054;50.108;8.640;2022-09-30T07:58:31;11.20;99.90
26342;DHT22;14054;50.108;8.640;2022-09-30T08:00:56;11.30;99.90
26342;DHT22;14054;50.108;8.640;2022-09-30T08:03:22;12.00;99.90
26342;DHT22;14054;50.108;8.640;2022-09-30T08:05:47;12.00;99.90
26342;DHT22;14054;50.108;8.640;2022-09-30T08:08:13;11.70;99.90
26342;DHT22;14054;50.108;8.640;2022-09-30T08:10:39;11.70;99.90
26342;DHT22;14054;50.108;8.640;2022-09-30T08:13:05;11.80;99.90
26342;DHT22;14054;50.108;8.640;2022-09-30T08:15:30;11.90;99.90
26342;DHT22;14054;50.108;8.640;2022-09-30T08:17:56;11.90;99.90
26342;DHT22;14054;50.108;8.640;2022-09-30T08:20:21;11.90;99.90
26342;DHT22;14054;50.108;8.640;2022-09-30T08:22:50;11.90;99.90
26342;DHT22;14054;50.108;8.640;2022-09-30T08:25:16;11.70;99.90
26342;DHT22;14054;50.108;8.640;2022-09-30T08:27:41;11.80;99.90
26342;DHT22;14054;50.108;8.640;2022-09-30T08:30:07;11.90;99.90
26342;DHT22;14054;50.108;8.640;2022-09-30T08:32:32;12.00;99.90
26342;DHT22;14054;50.108;8.640;2022-09-30T08:34:58;11.90;99.90
26342;DHT22;14054;50.108;8.640;2022-09-30T08:37:23;11.90;99.90
26342;DHT22;14054;50.108;8.640;2022-09-30T08:39:49;11.80;99.90
26342;DHT22;14054;50.108;8.640;2022-09-30T08:42:21;12.10;99.90
26342;DHT22;14054;50.108;8.640;2022-09-30T08:44:50;12.00;99.90
26342;DHT22;14054;50.108;8.640;2022-09-30T08:47:22;12.10;99.90
26342;DHT22;14054;50.108;8.640;2022-09-30T08:50:00;12.10;99.90
26342;DHT22;14054;50.108;8.640;2022-09-30T08:52:28;12.40;99.90
26342;DHT22;14054;50.108;8.640;2022-09-30T08:54:56;12.50;99.90
26342;DHT22;14054;50.108;8.640;2022-09-30T08:57:22;12.60;99.90
26342;DHT22;14054;50.108;8.640;2022-09-30T08:59:52;12.60;99.90
26342;DHT22;14054;50.108;8.640;2022-09-30T09:02:26;12.80;99.90
26342;DHT22;14054;50.108;8.640;2022-09-30T09:04:57;13.00;99.90
26342;DHT22;14054;50.108;8.640;2022-09-30T09:12:40;13.20;99.90
26342;DHT22;14054;50.108;8.640;2022-09-30T09:15:31;13.40;99.90
26342;DHT22;14054;50.108;8.640;2022-09-30T09:18:07;13.30;99.90
26342;DHT22;14054;50.108;8.640;2022-09-30T09:20:39;13.10;99.90
26342;DHT22;14054;50.108;8.640;2022-09-30T09:23:08;13.30;99.90
26342;DHT22;14054;50.108;8.640;2022-09-30T09:25:34;13.50;99.90
26342;DHT22;14054;50.108;8.640;2022-09-30T09:28:00;13.70;99.90
26342;DHT22;14054;50.108;8.640;2022-09-30T09:30:35;14.00;99.90
26342;DHT22;14054;50.108;8.640;2022-09-30T09:33:12;13.90;99.90
26342;DHT22;14054;50.108;8.640;2022-09-30T09:38:30;14.10;99.90
26342;DHT22;14054;50.108;8.640;2022-09-30T09:41:06;14.20;99.90
26342;DHT22;14054;50.108;8.640;2022-09-30T09:46:03;14.40;99.90
26342;DHT22;14054;50.108;8.640;2022-09-30T09:48:32;14.30;99.90
26342;DHT22;14054;50.108;8.640;2022-09-30T09:51:02;14.40;99.90
26342;DHT22;14054;50.108;8.640;2022-09-30T09:56:10;14.50;99.90
26342;DHT22;14054;50.108;8.640;2022-09-30T09:59:02;14.60;99.90
26342;DHT22;14054;50.108;8.640;2022-09-30T10:01:29;14.90;99.90
26342;DHT22;14054;50.108;8.640;2022-09-30T10:04:08;15.10;99.90
26342;DHT22;14054;50.108;8.640;2022-09-30T10:06:41;15.40;99.90
26342;DHT22;14054;50.108;8.640;2022-09-30T10:09:07;15.60;99.90
26342;DHT22;14054;50.108;8.640;2022-09-30T10:11:44;15.50;99.90
26342;DHT22;14054;50.108;8.640;2022-09-30T10:14:10;15.70;99.90
26342;DHT22;14054;50.108;8.640;2022-09-30T10:16:40;15.50;99.90
26342;DHT22;14054;50.108;8.640;2022-09-30T10:19:20;15.70;99.90
26342;DHT22;14054;50.108;8.640;2022-09-30T10:21:47;15.60;99.90
26342;DHT22;14054;50.108;8.640;2022-09-30T10:24:45;15.60;99.90
26342;DHT22;14054;50.108;8.640;2022-09-30T10:27:24;15.60;99.90
26342;DHT22;14054;50.108;8.640;2022-09-30T10:29:49;16.40;99.90
26342;DHT22;14054;50.108;8.640;2022-09-30T10:32:15;16.50;99.90
26342;DHT22;14054;50.108;8.640;2022-09-30T10:34:41;16.50;99.90
26342;DHT22;14054;50.108;8.640;2022-09-30T10:37:18;16.80;99.90
26342;DHT22;14054;50.108;8.640;2022-09-30T10:39:49;16.70;99.90
26342;DHT22;14054;50.108;8.640;2022-09-30T10:42:23;16.50;99.90
26342;DHT22;14054;50.108;8.640;2022-09-30T10:44:56;16.40;99.90
26342;DHT22;14054;50.108;8.640;2022-09-30T10:47:23;17.90;99.90
26342;DHT22;14054;50.108;8.640;2022-09-30T10:49:58;19.50;99.90
26342;DHT22;14054;50.108;8.640;2022-09-30T10:52:25;18.30;99.90
26342;DHT22;14054;50.108;8.640;2022-09-30T10:54:55;18.20;99.90
26342;DHT22;14054;50.108;8.640;2022-09-30T10:57:25;19.40;99.90
26342;DHT22;14054;50.108;8.640;2022-09-30T11:00:00;22.00;95.30
26342;DHT22;14054;50.108;8.640;2022-09-30T11:02:29;24.50;84.80
26342;DHT22;14054;50.108;8.640;2022-09-30T11:05:02;25.40;71.40
26342;DHT22;14054;50.108;8.640;2022-09-30T11:07:36;25.10;70.50
26342;DHT22;14054;50.108;8.640;2022-09-30T11:10:13;24.40;70.80
26342;DHT22;14054;50.108;8.640;2022-09-30T11:12:47;25.50;68.00
26342;DHT22;14054;50.108;8.640;2022-09-30T11:15:16;24.80;65.30
26342;DHT22;14054;50.108;8.640;2022-09-30T11:23:00;26.00;60.30
26342;DHT22;14054;50.108;8.640;2022-09-30T11:25:31;26.90;58.10
26342;DHT22;14054;50.108;8.640;2022-09-30T11:30:36;26.40;57.30
26342;DHT22;14054;50.108;8.640;2022-09-30T11:35:53;24.70;63.60
26342;DHT22;14054;50.108;8.640;2022-09-30T11:38:27;24.10;59.50
26342;DHT22;14054;50.108;8.640;2022-09-30T11:43:45;24.60;63.30
26342;DHT22;14054;50.108;8.640;2022-09-30T11:51:19;27.10;54.80
26342;DHT22;14054;50.108;8.640;2022-09-30T11:56:32;24.80;58.30
26342;DHT22;14054;50.108;8.640;2022-09-30T11:58:59;22.50;63.00
26342;DHT22;14054;50.108;8.640;2022-09-30T12:01:33;20.90;72.00
26342;DHT22;14054;50.108;8.640;2022-09-30T12:04:07;20.40;76.40
26342;DHT22;14054;50.108;8.640;2022-09-30T12:06:35;19.50;80.40
26342;DHT22;14054;50.108;8.640;2022-09-30T12:09:05;22.00;73.90
26342;DHT22;14054;50.108;8.640;2022-09-30T12:11:34;23.90;63.10
26342;DHT22;14054;50.108;8.640;2022-09-30T12:14:02;24.60;59.10
26342;DHT22;14054;50.108;8.640;2022-09-30T12:16:29;24.70;59.30
26342;DHT22;14054;50.108;8.640;2022-09-30T12:19:04;25.30;56.50
26342;DHT22;14054;50.108;8.640;2022-09-30T12:21:38;27.90;53.10
26342;DHT22;14054;50.108;8.640;2022-09-30T12:26:47;27.80;49.40
26342;DHT22;14054;50.108;8.640;2022-09-30T12:29:17;28.70;47.20
26342;DHT22;14054;50.108;8.640;2022-09-30T12:32:10;28.00;46.80
26342;DHT22;14054;50.108;8.640;2022-09-30T12:34:58;28.80;46.10
26342;DHT22;14054;50.108;8.640;2022-09-30T12:40:28;28.30;46.40
26342;DHT22;14054;50.108;8.640;2022-09-30T12:43:14;28.20;45.90
26342;DHT22;14054;50.108;8.640;2022-09-30T12:48:11;24.60;54.00
26342;DHT22;14054;50.108;8.640;2022-09-30T12:50:49;25.40;51.50
26342;DHT22;14054;50.108;8.640;2022-09-30T12:53:27;24.10;51.70
26342;DHT22;14054;50.108;8.640;2022-09-30T12:55:54;21.80;60.00
26342;DHT22;14054;50.108;8.640;2022-09-30T12:58:27;19.70;68.60
26342;DHT22;14054;50.108;8.640;2022-09-30T13:00:59;18.50;77.50
26342;DHT22;14054;50.108;8.640;2022-09-30T13:03:25;18.00;81.90
26342;DHT22;14054;50.108;8.640;2022-09-30T13:05:52;18.50;82.90
26342;DHT22;14054;50.108;8.640;2022-09-30T13:10:44;18.30;83.70
26342;DHT22;14054;50.108;8.640;2022-09-30T13:13:20;19.20;78.20
26342;DHT22;14054;50.108;8.640;2022-09-30T13:15:48;20.30;73.30
26342;DHT22;14054;50.108;8.640;2022-09-30T13:20:49;22.20;68.40
26342;DHT22;14054;50.108;8.640;2022-09-30T13:24:02;23.90;60.20
26342;DHT22;14054;50.108;8.640;2022-09-30T13:28:46;25.70;53.80
26342;DHT22;14054;50.108;8.640;2022-09-30T13:31:22;25.80;53.40
26342;DHT22;14054;50.108;8.640;2022-09-30T13:36:37;20.70;66.30
26342;DHT22;14054;50.108;8.640;2022-09-30T13:42:00;23.60;59.50
26342;DHT22;14054;50.108;8.640;2022-09-30T13:46:59;25.50;53.60
26342;DHT22;14054;50.108;8.640;2022-09-30T13:49:47;26.10;52.70
26342;DHT22;14054;50.108;8.640;2022-09-30T13:52:17;26.50;50.40
26342;DHT22;14054;50.108;8.640;2022-09-30T13:54:44;25.90;51.40
26342;DHT22;14054;50.108;8.640;2022-09-30T13:57:14;22.70;55.40
26342;DHT22;14054;50.108;8.640;2022-09-30T14:07:15;19.70;68.80
26342;DHT22;14054;50.108;8.640;2022-09-30T14:17:36;18.50;75.80
26342;DHT22;14054;50.108;8.640;2022-09-30T14:22:49;18.70;79.10
26342;DHT22;14054;50.108;8.640;2022-09-30T14:25:15;18.50;79.50
26342;DHT22;14054;50.108;8.640;2022-09-30T14:30:18;18.20;82.70
26342;DHT22;14054;50.108;8.640;2022-09-30T14:33:26;18.10;80.60
26342;DHT22;14054;50.108;8.640;2022-09-30T14:35:33;18.10;82.80
26342;DHT22;14054;50.108;8.640;2022-09-30T14:38:00;18.10;82.80
26342;DHT22;14054;50.108;8.640;2022-09-30T14:40:27;18.00;83.00
26342;DHT22;14054;50.108;8.640;2022-09-30T14:42:53;17.90;84.20
26342;DHT22;14054;50.108;8.640;2022-09-30T14:45:29;17.90;85.80
26342;DHT22;14054;50.108;8.640;2022-09-30T14:47:56;17.80;85.40
26342;DHT22;14054;50.108;8.640;2022-09-30T14:50:24;17.60;87.50
26342;DHT22;14054;50.108;8.640;2022-09-30T14:52:50;17.70;88.90
26342;DHT22;14054;50.108;8.640;2022-09-30T14:55:35;17.70;89.60
26342;DHT22;14054;50.108;8.640;2022-09-30T15:00:59;17.50;90.30
26342;DHT22;14054;50.108;8.640;2022-09-30T15:03:26;17.50;90.20
26342;DHT22;14054;50.108;8.640;2022-09-30T15:05:52;17.40;90.90
26342;DHT22;14054;50.108;8.640;2022-09-30T15:08:19;17.20;90.70
26342;DHT22;14054;50.108;8.640;2022-09-30T15:10:48;17.00;91.50
26342;DHT22;14054;50.108;8.640;2022-09-30T15:13:16;17.00;92.40
26342;DHT22;14054;50.108;8.640;2022-09-30T15:15:42;16.80;92.80
26342;DHT22;14054;50.108;8.640;2022-09-30T15:18:24;16.70;93.30
26342;DHT22;14054;50.108;8.640;2022-09-30T15:20:51;16.70;94.40
26342;DHT22;14054;50.108;8.640;2022-09-30T15:23:23;16.60;94.10
26342;DHT22;14054;50.108;8.640;2022-09-30T15:25:49;16.50;94.80
26342;DHT22;14054;50.108;8.640;2022-09-30T15:28:16;16.50;95.80
26342;DHT22;14054;50.108;8.640;2022-09-30T15:30:41;16.50;96.20
26342;DHT22;14054;50.108;8.640;2022-09-30T15:33:11;16.50;95.70
26342;DHT22;14054;50.108;8.640;2022-09-30T15:35:38;16.40;94.60
26342;DHT22;14054;50.108;8.640;2022-09-30T15:38:04;16.30;94.50
26342;DHT22;14054;50.108;8.640;2022-09-30T15:40:30;16.20;95.20
26342;DHT22;14054;50.108;8.640;2022-09-30T15:43:11;16.20;95.50
26342;DHT22;14054;50.108;8.640;2022-09-30T15:45:41;16.10;96.20
26342;DHT22;14054;50.108;8.640;2022-09-30T15:50:40;16.10;97.80
26342;DHT22;14054;50.108;8.640;2022-09-30T15:53:21;16.00;98.60
26342;DHT22;14054;50.108;8.640;2022-09-30T15:55:54;16.00;99.00
26342;DHT22;14054;50.108;8.640;2022-09-30T15:58:41;16.00;99.40
26342;DHT22;14054;50.108;8.640;2022-09-30T16:01:08;15.90;99.90
26342;DHT22;14054;50.108;8.640;2022-09-30T16:03:34;15.90;99.90
26342;DHT22;14054;50.108;8.640;2022-09-30T16:06:03;15.70;99.90
26342;DHT22;14054;50.108;8.640;2022-09-30T16:08:30;15.80;99.90
26342;DHT22;14054;50.108;8.640;2022-09-30T16:10:57;15.80;99.90
26342;DHT22;14054;50.108;8.640;2022-09-30T16:13:27;15.80;99.90
26342;DHT22;14054;50.108;8.640;2022-09-30T16:15:54;15.70;99.90
26342;DHT22;14054;50.108;8.640;2022-09-30T16:18:23;15.70;99.90
26342;DHT22;14054;50.108;8.640;2022-09-30T16:21:00;15.70;99.90
26342;DHT22;14054;50.108;8.640;2022-09-30T16:23:26;15.70;99.90
26342;DHT22;14054;50.108;8.640;2022-09-30T16:26:10;15.60;99.90
26342;DHT22;14054;50.108;8.640;2022-09-30T16:28:36;15.60;99.90
26342;DHT22;14054;50.108;8.640;2022-09-30T16:31:01;15.50;99.90
26342;DHT22;14054;50.108;8.640;2022-09-30T16:33:27;15.40;99.90
26342;DHT22;14054;50.108;8.640;2022-09-30T16:35:52;15.30;99.90
26342;DHT22;14054;50.108;8.640;2022-09-30T16:38:17;15.30;99.90
26342;DHT22;14054;50.108;8.640;2022-09-30T16:40:44;15.20;99.90
26342;DHT22;14054;50.108;8.640;2022-09-30T16:43:09;15.20;99.90
26342;DHT22;14054;50.108;8.640;2022-09-30T16:45:35;15.20;99.90
26342;DHT22;14054;50.108;8.640;2022-09-30T16:48:04;15.10;99.90
26342;DHT22;14054;50.108;8.640;2022-09-30T16:53:34;15.00;99.90
26342;DHT22;14054;50.108;8.640;2022-09-30T16:55:59;15.00;99.90
26342;DHT22;14054;50.108;8.640;2022-09-30T16:58:25;15.00;99.90
26342;DHT22;14054;50.108;8.640;2022-09-30T17:00:50;15.00;99.90
26342;DHT22;14054;50.108;8.640;2022-09-30T17:03:16;14.90;99.90
26342;DHT22;14054;50.108;8.640;2022-09-30T17:05:43;14.80;99.90
26342;DHT22;14054;50.108;8.640;2022-09-30T17:08:12;14.80;99.90
26342;DHT22;14054;50.108;8.640;2022-09-30T17:10:38;14.80;99.90
26342;DHT22;14054;50.108;8.640;2022-09-30T17:13:04;14.70;99.90
26342;DHT22;14054;50.108;8.640;2022-09-30T17:15:31;14.60;99.90
26342;DHT22;14054;50.108;8.640;2022-09-30T17:17:56;14.50;99.90
26342;DHT22;14054;50.108;8.640;2022-09-30T17:20:22;14.50;99.90
26342;DHT22;14054;50.108;8.640;2022-09-30T17:22:48;14.60;99.90
26342;DHT22;14054;50.108;8.640;2022-09-30T17:25:13;14.50;99.90
26342;DHT22;14054;50.108;8.640;2022-09-30T17:27:39;14.40;99.90
26342;DHT22;14054;50.108;8.640;2022-09-30T17:30:05;14.40;99.90
26342;DHT22;14054;50.108;8.640;2022-09-30T17:32:33;14.40;99.90
26342;DHT22;14054;50.108;8.640;2022-09-30T17:34:58;14.40;99.90
26342;DHT22;14054;50.108;8.640;2022-09-30T17:37:24;14.40;99.90
26342;DHT22;14054;50.108;8.640;2022-09-30T17:39:51;14.30;99.90
26342;DHT22;14054;50.108;8.640;2022-09-30T17:42:16;14.30;99.90
26342;DHT22;14054;50.108;8.640;2022-09-30T17:45:00;14.20;99.90
26342;DHT22;14054;50.108;8.640;2022-09-30T17:47:26;14.10;99.90
26342;DHT22;14054;50.108;8.640;2022-09-30T17:49:51;14.10;99.90
26342;DHT22;14054;50.108;8.640;2022-09-30T17:52:17;14.10;99.90
26342;DHT22;14054;50.108;8.640;2022-09-30T17:54:43;14.00;99.90
26342;DHT22;14054;50.108;8.640;2022-09-30T17:57:08;14.00;99.90
26342;DHT22;14054;50.108;8.640;2022-09-30T17:59:34;13.90;99.90